sensor_id;sensor_type;location;lat;lon;timestamp;temperature;humidity
3478;DHT22;37937;61.490;23.506;2023-04-06T00:02:04;0.50;99.90
3478;DHT22;37937;61.490;23.506;2023-04-06T00:04:30;0.50;99.90
3478;DHT22;37937;61.490;23.506;2023-04-06T00:06:55;0.40;99.90
3478;DHT22;37937;61.490;23.506;2023-04-06T00:09:21;0.40;99.90
3478;DHT22;37937;61.490;23.506;2023-04-06T00:11:47;0.30;99.90
3478;DHT22;37937;61.490;23.506;2023-04-06T00:14:13;0.30;99.90
3478;DHT22;37937;61.490;23.506;2023-04-06T00:16:39;0.30;99.90
3478;DHT22;37937;61.490;23.506;2023-04-06T00:19:04;0.30;99.90
3478;DHT22;37937;61.490;23.506;2023-04-06T00:21:30;0.30;99.90
3478;DHT22;37937;61.490;23.506;2023-04-06T00:23:56;0.30;99.90
3478;DHT22;37937;61.490;23.506;2023-04-06T00:26:22;0.30;99.90
3478;DHT22;37937;61.490;23.506;2023-04-06T00:28:47;0.30;99.90
3478;DHT22;37937;61.490;23.506;2023-04-06T00:31:15;0.30;99.90
3478;DHT22;37937;61.490;23.506;2023-04-06T00:33:40;0.30;99.90
3478;DHT22;37937;61.490;23.506;2023-04-06T00:36:06;0.30;99.90
3478;DHT22;37937;61.490;23.506;2023-04-06T00:38:32;0.30;99.90
3478;DHT22;37937;61.490;23.506;2023-04-06T00:40:57;0.20;99.90
3478;DHT22;37937;61.490;23.506;2023-04-06T00:43:23;0.20;99.90
3478;DHT22;37937;61.490;23.506;2023-04-06T00:45:49;0.10;99.90
3478;DHT22;37937;61.490;23.506;2023-04-06T00:48:15;0.10;99.90
3478;DHT22;37937;61.490;23.506;2023-04-06T00:50:42;0.10;99.90
3478;DHT22;37937;61.490;23.506;2023-04-06T00:53:07;0.10;99.90
3478;DHT22;37937;61.490;23.506;2023-04-06T00:55:33;0.10;99.90
3478;DHT22;37937;61.490;23.506;2023-04-06T00:58:01;0.00;99.90
3478;DHT22;37937;61.490;23.506;2023-04-06T01:00:27;0.00;99.90
3478;DHT22;37937;61.490;23.506;2023-04-06T01:02:52;0.00;99.90
3478;DHT22;37937;61.490;23.506;2023-04-06T01:05:18;0.10;99.90
3478;DHT22;37937;61.490;23.506;2023-04-06T01:07:44;0.00;99.90
3478;DHT22;37937;61.490;23.506;2023-04-06T01:10:10;0.00;99.90
3478;DHT22;37937;61.490;23.506;2023-04-06T01:12:35;0.00;99.90
3478;DHT22;37937;61.490;23.506;2023-04-06T01:15:03;0.00;99.90
3478;DHT22;37937;61.490;23.506;2023-04-06T01:17:28;-0.10;99.90
3478;DHT22;37937;61.490;23.506;2023-04-06T01:19:54;0.00;99.90
3478;DHT22;37937;61.490;23.506;2023-04-06T01:22:20;0.00;99.90
3478;DHT22;37937;61.490;23.506;2023-04-06T01:24:45;-0.10;99.90
3478;DHT22;37937;61.490;23.506;2023-04-06T01:27:11;-0.10;99.90
3478;DHT22;37937;61.490;23.506;2023-04-06T01:29:37;-0.10;99.90
3478;DHT22;37937;61.490;23.506;2023-04-06T01:32:02;-0.10;99.90
3478;DHT22;37937;61.490;23.506;2023-04-06T01:34:28;-0.10;99.90
3478;DHT22;37937;61.490;23.506;2023-04-06T01:36:54;-0.20;99.90
3478;DHT22;37937;61.490;23.506;2023-04-06T01:39:19;-0.20;99.90
3478;DHT22;37937;61.490;23.506;2023-04-06T01:41:48;-0.20;99.90
3478;DHT22;37937;61.490;23.506;2023-04-06T01:44:17;-0.20;99.90
3478;DHT22;37937;61.490;23.506;2023-04-06T01:46:44;-0.10;99.90
3478;DHT22;37937;61.490;23.506;2023-04-06T01:49:09;-0.20;99.90
3478;DHT22;37937;61.490;23.506;2023-04-06T01:51:35;-0.20;99.90
3478;DHT22;37937;61.490;23.506;2023-04-06T01:54:00;-0.20;99.90
3478;DHT22;37937;61.490;23.506;2023-04-06T01:56:26;-0.30;99.90
3478;DHT22;37937;61.490;23.506;2023-04-06T01:58:52;-0.30;99.90
3478;DHT22;37937;61.490;23.506;2023-04-06T02:01:17;-0.30;99.90
3478;DHT22;37937;61.490;23.506;2023-04-06T02:03:43;-0.30;99.90
3478;DHT22;37937;61.490;23.506;2023-04-06T02:06:08;-0.30;99.90
3478;DHT22;37937;61.490;23.506;2023-04-06T02:08:34;-0.30;99.90
3478;DHT22;37937;61.490;23.506;2023-04-06T02:11:00;-0.30;99.90
3478;DHT22;37937;61.490;23.506;2023-04-06T02:13:25;-0.40;99.90
3478;DHT22;37937;61.490;23.506;2023-04-06T02:15:51;-0.30;99.90
3478;DHT22;37937;61.490;23.506;2023-04-06T02:18:17;-0.40;99.90
3478;DHT22;37937;61.490;23.506;2023-04-06T02:20:43;-0.40;99.90
3478;DHT22;37937;61.490;23.506;2023-04-06T02:23:09;-0.40;99.90
3478;DHT22;37937;61.490;23.506;2023-04-06T02:25:35;-0.40;99.90
3478;DHT22;37937;61.490;23.506;2023-04-06T02:28:01;-0.40;99.90
3478;DHT22;37937;61.490;23.506;2023-04-06T02:30:26;-0.40;99.90
3478;DHT22;37937;61.490;23.506;2023-04-06T02:32:52;-0.50;99.90
3478;DHT22;37937;61.490;23.506;2023-04-06T02:35:18;-0.40;99.90
3478;DHT22;37937;61.490;23.506;2023-04-06T02:37:43;-0.50;99.90
3478;DHT22;37937;61.490;23.506;2023-04-06T02:40:09;-0.50;99.90
3478;DHT22;37937;61.490;23.506;2023-04-06T02:42:35;-0.50;99.90
3478;DHT22;37937;61.490;23.506;2023-04-06T02:45:00;-0.50;99.90
3478;DHT22;37937;61.490;23.506;2023-04-06T02:47:26;-0.50;99.90
3478;DHT22;37937;61.490;23.506;2023-04-06T02:49:52;-0.50;99.90
3478;DHT22;37937;61.490;23.506;2023-04-06T02:52:17;-0.50;99.90
3478;DHT22;37937;61.490;23.506;2023-04-06T02:54:43;-0.50;99.90
3478;DHT22;37937;61.490;23.506;2023-04-06T02:57:09;-0.50;99.90
3478;DHT22;37937;61.490;23.506;2023-04-06T02:59:34;-0.50;99.90
3478;DHT22;37937;61.490;23.506;2023-04-06T03:02:00;-0.50;99.90
3478;DHT22;37937;61.490;23.506;2023-04-06T03:04:25;-0.50;99.90
3478;DHT22;37937;61.490;23.506;2023-04-06T03:06:51;-0.50;99.90
3478;DHT22;37937;61.490;23.506;2023-04-06T03:09:17;-0.50;99.90
3478;DHT22;37937;61.490;23.506;2023-04-06T03:11:42;-0.50;99.90
3478;DHT22;37937;61.490;23.506;2023-04-06T03:14:08;-0.50;99.90
3478;DHT22;37937;61.490;23.506;2023-04-06T03:16:33;-0.50;99.90
3478;DHT22;37937;61.490;23.506;2023-04-06T03:18:59;-0.50;99.90
3478;DHT22;37937;61.490;23.506;2023-04-06T03:21:25;-0.50;99.90
3478;DHT22;37937;61.490;23.506;2023-04-06T03:23:51;-0.50;99.90
3478;DHT22;37937;61.490;23.506;2023-04-06T03:26:16;-0.50;99.90
3478;DHT22;37937;61.490;23.506;2023-04-06T03:28:42;-0.50;99.90
3478;DHT22;37937;61.490;23.506;2023-04-06T03:31:07;-0.50;99.90
3478;DHT22;37937;61.490;23.506;2023-04-06T03:33:33;-0.50;99.90
3478;DHT22;37937;61.490;23.506;2023-04-06T03:35:59;-0.50;99.90
3478;DHT22;37937;61.490;23.506;2023-04-06T03:38:24;-0.50;99.90
3478;DHT22;37937;61.490;23.506;2023-04-06T03:40:50;-0.50;99.90
3478;DHT22;37937;61.490;23.506;2023-04-06T03:43:15;-0.50;99.90
3478;DHT22;37937;61.490;23.506;2023-04-06T03:45:41;-0.50;99.90
3478;DHT22;37937;61.490;23.506;2023-04-06T03:48:06;-0.50;99.90
3478;DHT22;37937;61.490;23.506;2023-04-06T03:50:32;-0.50;99.90
3478;DHT22;37937;61.490;23.506;2023-04-06T03:52:58;-0.40;99.90
3478;DHT22;37937;61.490;23.506;2023-04-06T03:55:23;-0.40;99.90
3478;DHT22;37937;61.490;23.506;2023-04-06T03:57:49;-0.40;99.90
3478;DHT22;37937;61.490;23.506;2023-04-06T04:00:15;-0.30;99.90
3478;DHT22;37937;61.490;23.506;2023-04-06T04:02:41;-0.30;99.90
3478;DHT22;37937;61.490;23.506;2023-04-06T04:05:06;-0.30;99.90
3478;DHT22;37937;61.490;23.506;2023-04-06T04:07:32;-0.20;99.90
3478;DHT22;37937;61.490;23.506;2023-04-06T04:09:58;-0.20;99.90
3478;DHT22;37937;61.490;23.506;2023-04-06T04:12:23;-0.10;99.90
3478;DHT22;37937;61.490;23.506;2023-04-06T04:14:49;-0.10;99.90
3478;DHT22;37937;61.490;23.506;2023-04-06T04:17:14;0.00;99.90
3478;DHT22;37937;61.490;23.506;2023-04-06T04:19:40;0.20;99.90
3478;DHT22;37937;61.490;23.506;2023-04-06T04:22:06;0.30;99.90
3478;DHT22;37937;61.490;23.506;2023-04-06T04:24:31;0.50;99.90
3478;DHT22;37937;61.490;23.506;2023-04-06T04:26:57;0.60;99.90
3478;DHT22;37937;61.490;23.506;2023-04-06T04:29:23;0.70;99.90
3478;DHT22;37937;61.490;23.506;2023-04-06T04:31:48;0.80;99.90
3478;DHT22;37937;61.490;23.506;2023-04-06T04:34:14;0.70;99.90
3478;DHT22;37937;61.490;23.506;2023-04-06T04:36:40;0.70;99.90
3478;DHT22;37937;61.490;23.506;2023-04-06T04:39:07;0.80;99.90
3478;DHT22;37937;61.490;23.506;2023-04-06T04:41:33;1.00;99.90
3478;DHT22;37937;61.490;23.506;2023-04-06T04:43:58;1.00;99.90
3478;DHT22;37937;61.490;23.506;2023-04-06T04:46:24;1.10;99.90
3478;DHT22;37937;61.490;23.506;2023-04-06T04:48:50;1.10;99.90
3478;DHT22;37937;61.490;23.506;2023-04-06T04:51:15;1.20;99.90
3478;DHT22;37937;61.490;23.506;2023-04-06T04:53:41;1.10;99.90
3478;DHT22;37937;61.490;23.506;2023-04-06T04:56:06;1.20;99.90
3478;DHT22;37937;61.490;23.506;2023-04-06T04:58:32;1.40;99.90
3478;DHT22;37937;61.490;23.506;2023-04-06T05:00:57;1.60;99.90
3478;DHT22;37937;61.490;23.506;2023-04-06T05:03:24;1.70;99.90
3478;DHT22;37937;61.490;23.506;2023-04-06T05:05:49;1.80;99.90
3478;DHT22;37937;61.490;23.506;2023-04-06T05:08:15;1.70;99.90
3478;DHT22;37937;61.490;23.506;2023-04-06T05:10:41;1.80;99.90
3478;DHT22;37937;61.490;23.506;2023-04-06T05:13:07;2.10;99.90
3478;DHT22;37937;61.490;23.506;2023-04-06T05:15:32;1.90;99.90
3478;DHT22;37937;61.490;23.506;2023-04-06T05:18:00;1.80;99.90
3478;DHT22;37937;61.490;23.506;2023-04-06T05:20:26;2.10;99.90
3478;DHT22;37937;61.490;23.506;2023-04-06T05:22:52;2.10;99.90
3478;DHT22;37937;61.490;23.506;2023-04-06T05:25:17;2.00;99.90
3478;DHT22;37937;61.490;23.506;2023-04-06T05:27:43;2.20;99.90
3478;DHT22;37937;61.490;23.506;2023-04-06T05:30:09;2.10;99.90
3478;DHT22;37937;61.490;23.506;2023-04-06T05:32:34;2.40;99.90
3478;DHT22;37937;61.490;23.506;2023-04-06T05:35:00;2.40;99.90
3478;DHT22;37937;61.490;23.506;2023-04-06T05:37:26;2.50;99.90
3478;DHT22;37937;61.490;23.506;2023-04-06T05:39:51;2.40;99.90
3478;DHT22;37937;61.490;23.506;2023-04-06T05:42:17;2.50;99.90
3478;DHT22;37937;61.490;23.506;2023-04-06T05:44:42;3.00;99.90
3478;DHT22;37937;61.490;23.506;2023-04-06T05:47:08;2.80;99.90
3478;DHT22;37937;61.490;23.506;2023-04-06T05:49:33;2.80;99.90
3478;DHT22;37937;61.490;23.506;2023-04-06T05:52:00;3.30;99.90
3478;DHT22;37937;61.490;23.506;2023-04-06T05:54:26;3.50;99.90
3478;DHT22;37937;61.490;23.506;2023-04-06T05:56:51;3.70;99.90
3478;DHT22;37937;61.490;23.506;2023-04-06T05:59:17;4.10;99.90
3478;DHT22;37937;61.490;23.506;2023-04-06T06:01:42;4.50;99.90
3478;DHT22;37937;61.490;23.506;2023-04-06T06:04:08;4.80;99.90
3478;DHT22;37937;61.490;23.506;2023-04-06T06:06:33;5.10;99.90
3478;DHT22;37937;61.490;23.506;2023-04-06T06:08:59;5.00;99.90
3478;DHT22;37937;61.490;23.506;2023-04-06T06:11:26;5.10;99.90
3478;DHT22;37937;61.490;23.506;2023-04-06T06:13:51;5.00;99.90
3478;DHT22;37937;61.490;23.506;2023-04-06T06:16:17;5.40;99.90
3478;DHT22;37937;61.490;23.506;2023-04-06T06:18:43;5.30;99.90
3478;DHT22;37937;61.490;23.506;2023-04-06T06:21:09;5.40;99.90
3478;DHT22;37937;61.490;23.506;2023-04-06T06:23:36;5.10;99.90
3478;DHT22;37937;61.490;23.506;2023-04-06T06:26:02;5.00;99.90
3478;DHT22;37937;61.490;23.506;2023-04-06T06:28:27;5.20;99.90
3478;DHT22;37937;61.490;23.506;2023-04-06T06:30:53;5.40;99.90
3478;DHT22;37937;61.490;23.506;2023-04-06T06:33:19;5.40;99.90
3478;DHT22;37937;61.490;23.506;2023-04-06T06:35:45;5.70;99.90
3478;DHT22;37937;61.490;23.506;2023-04-06T06:38:10;5.80;99.90
3478;DHT22;37937;61.490;23.506;2023-04-06T06:40:36;6.20;99.90
3478;DHT22;37937;61.490;23.506;2023-04-06T06:43:02;6.10;99.90
3478;DHT22;37937;61.490;23.506;2023-04-06T06:45:27;6.00;99.90
3478;DHT22;37937;61.490;23.506;2023-04-06T06:47:54;5.70;99.90
3478;DHT22;37937;61.490;23.506;2023-04-06T06:50:20;6.50;99.90
3478;DHT22;37937;61.490;23.506;2023-04-06T06:52:46;6.50;99.90
3478;DHT22;37937;61.490;23.506;2023-04-06T06:55:11;5.70;99.90
3478;DHT22;37937;61.490;23.506;2023-04-06T06:57:38;5.90;99.90
3478;DHT22;37937;61.490;23.506;2023-04-06T07:00:04;6.20;99.90
3478;DHT22;37937;61.490;23.506;2023-04-06T07:02:30;6.00;99.90
3478;DHT22;37937;61.490;23.506;2023-04-06T07:04:56;6.10;99.90
3478;DHT22;37937;61.490;23.506;2023-04-06T07:07:22;6.50;99.90
3478;DHT22;37937;61.490;23.506;2023-04-06T07:09:47;6.30;99.90
3478;DHT22;37937;61.490;23.506;2023-04-06T07:12:13;6.40;99.90
3478;DHT22;37937;61.490;23.506;2023-04-06T07:14:38;6.30;99.90
3478;DHT22;37937;61.490;23.506;2023-04-06T07:17:04;6.60;99.90
3478;DHT22;37937;61.490;23.506;2023-04-06T07:19:30;6.60;99.90
3478;DHT22;37937;61.490;23.506;2023-04-06T07:21:56;6.60;99.90
3478;DHT22;37937;61.490;23.506;2023-04-06T07:24:21;6.60;99.90
3478;DHT22;37937;61.490;23.506;2023-04-06T07:26:47;6.70;99.90
3478;DHT22;37937;61.490;23.506;2023-04-06T07:29:12;6.80;99.90
3478;DHT22;37937;61.490;23.506;2023-04-06T07:31:38;6.60;99.90
3478;DHT22;37937;61.490;23.506;2023-04-06T07:34:04;6.70;99.90
3478;DHT22;37937;61.490;23.506;2023-04-06T07:36:29;6.40;99.90
3478;DHT22;37937;61.490;23.506;2023-04-06T07:38:55;6.80;99.90
3478;DHT22;37937;61.490;23.506;2023-04-06T07:41:20;7.20;99.90
3478;DHT22;37937;61.490;23.506;2023-04-06T07:43:46;7.00;99.90
3478;DHT22;37937;61.490;23.506;2023-04-06T07:46:12;7.00;99.90
3478;DHT22;37937;61.490;23.506;2023-04-06T07:48:37;7.50;99.90
3478;DHT22;37937;61.490;23.506;2023-04-06T07:51:03;7.60;99.90
3478;DHT22;37937;61.490;23.506;2023-04-06T07:53:29;7.60;99.90
3478;DHT22;37937;61.490;23.506;2023-04-06T07:55:56;7.70;99.90
3478;DHT22;37937;61.490;23.506;2023-04-06T07:58:21;7.60;99.90
3478;DHT22;37937;61.490;23.506;2023-04-06T08:00:47;7.40;99.90
3478;DHT22;37937;61.490;23.506;2023-04-06T08:03:12;7.40;99.90
3478;DHT22;37937;61.490;23.506;2023-04-06T08:05:38;7.50;99.90
3478;DHT22;37937;61.490;23.506;2023-04-06T08:08:04;7.80;99.90
3478;DHT22;37937;61.490;23.506;2023-04-06T08:10:29;8.10;99.90
3478;DHT22;37937;61.490;23.506;2023-04-06T08:12:55;8.20;99.90
3478;DHT22;37937;61.490;23.506;2023-04-06T08:15:21;8.30;99.90
3478;DHT22;37937;61.490;23.506;2023-04-06T08:17:46;8.10;99.90
3478;DHT22;37937;61.490;23.506;2023-04-06T08:20:12;8.30;99.90
3478;DHT22;37937;61.490;23.506;2023-04-06T08:22:37;8.60;99.90
3478;DHT22;37937;61.490;23.506;2023-04-06T08:25:03;8.70;99.90
3478;DHT22;37937;61.490;23.506;2023-04-06T08:27:29;8.50;99.90
3478;DHT22;37937;61.490;23.506;2023-04-06T08:29:54;8.40;99.90
3478;DHT22;37937;61.490;23.506;2023-04-06T08:32:20;8.90;99.90
3478;DHT22;37937;61.490;23.506;2023-04-06T08:34:46;8.90;99.90
3478;DHT22;37937;61.490;23.506;2023-04-06T08:37:12;8.80;99.90
3478;DHT22;37937;61.490;23.506;2023-04-06T08:39:37;8.50;99.90
3478;DHT22;37937;61.490;23.506;2023-04-06T08:42:03;8.60;99.90
3478;DHT22;37937;61.490;23.506;2023-04-06T08:44:29;9.00;99.90
3478;DHT22;37937;61.490;23.506;2023-04-06T08:46:55;9.00;99.90
3478;DHT22;37937;61.490;23.506;2023-04-06T08:49:21;9.10;99.90
3478;DHT22;37937;61.490;23.506;2023-04-06T08:51:46;9.10;99.90
3478;DHT22;37937;61.490;23.506;2023-04-06T08:54:12;9.10;99.90
3478;DHT22;37937;61.490;23.506;2023-04-06T08:56:38;9.70;99.90
3478;DHT22;37937;61.490;23.506;2023-04-06T08:59:04;9.90;99.90
3478;DHT22;37937;61.490;23.506;2023-04-06T09:01:31;9.80;99.90
3478;DHT22;37937;61.490;23.506;2023-04-06T09:03:59;9.80;99.90
3478;DHT22;37937;61.490;23.506;2023-04-06T09:06:25;9.70;99.90
3478;DHT22;37937;61.490;23.506;2023-04-06T09:08:54;9.80;99.90
3478;DHT22;37937;61.490;23.506;2023-04-06T09:11:20;10.10;99.90
3478;DHT22;37937;61.490;23.506;2023-04-06T09:13:55;10.10;99.90
3478;DHT22;37937;61.490;23.506;2023-04-06T09:16:21;10.40;99.90
3478;DHT22;37937;61.490;23.506;2023-04-06T09:18:47;10.10;99.90
3478;DHT22;37937;61.490;23.506;2023-04-06T09:21:13;10.30;99.90
3478;DHT22;37937;61.490;23.506;2023-04-06T09:23:41;10.30;99.90
3478;DHT22;37937;61.490;23.506;2023-04-06T09:26:10;10.60;99.90
3478;DHT22;37937;61.490;23.506;2023-04-06T09:31:08;10.90;99.90
3478;DHT22;37937;61.490;23.506;2023-04-06T09:33:38;10.80;99.90
3478;DHT22;37937;61.490;23.506;2023-04-06T09:36:05;11.40;99.90
3478;DHT22;37937;61.490;23.506;2023-04-06T09:38:31;11.30;99.90
3478;DHT22;37937;61.490;23.506;2023-04-06T09:40:57;11.10;99.90
3478;DHT22;37937;61.490;23.506;2023-04-06T09:43:26;12.30;99.90
3478;DHT22;37937;61.490;23.506;2023-04-06T09:45:52;11.80;99.30
3478;DHT22;37937;61.490;23.506;2023-04-06T09:48:18;12.70;99.90
3478;DHT22;37937;61.490;23.506;2023-04-06T09:50:45;11.70;94.60
3478;DHT22;37937;61.490;23.506;2023-04-06T09:53:11;12.10;97.50
3478;DHT22;37937;61.490;23.506;2023-04-06T09:55:42;12.30;96.30
3478;DHT22;37937;61.490;23.506;2023-04-06T09:58:11;12.50;94.40
3478;DHT22;37937;61.490;23.506;2023-04-06T10:00:47;12.60;92.50
3478;DHT22;37937;61.490;23.506;2023-04-06T10:05:57;12.40;94.60
3478;DHT22;37937;61.490;23.506;2023-04-06T10:08:27;12.50;95.10
3478;DHT22;37937;61.490;23.506;2023-04-06T10:10:53;13.00;90.60
3478;DHT22;37937;61.490;23.506;2023-04-06T10:13:19;13.40;86.80
3478;DHT22;37937;61.490;23.506;2023-04-06T10:15:44;13.30;93.00
3478;DHT22;37937;61.490;23.506;2023-04-06T10:18:10;12.80;91.00
3478;DHT22;37937;61.490;23.506;2023-04-06T10:20:56;12.60;90.00
3478;DHT22;37937;61.490;23.506;2023-04-06T10:23:45;12.80;90.20
3478;DHT22;37937;61.490;23.506;2023-04-06T10:26:12;12.70;90.70
3478;DHT22;37937;61.490;23.506;2023-04-06T10:28:40;12.50;88.60
3478;DHT22;37937;61.490;23.506;2023-04-06T10:31:06;12.40;85.40
3478;DHT22;37937;61.490;23.506;2023-04-06T10:33:32;12.10;87.30
3478;DHT22;37937;61.490;23.506;2023-04-06T10:35:58;11.90;88.70
3478;DHT22;37937;61.490;23.506;2023-04-06T10:38:33;11.80;89.60
3478;DHT22;37937;61.490;23.506;2023-04-06T10:41:06;11.50;90.40
3478;DHT22;37937;61.490;23.506;2023-04-06T10:43:35;11.70;90.80
3478;DHT22;37937;61.490;23.506;2023-04-06T10:46:02;12.00;90.60
3478;DHT22;37937;61.490;23.506;2023-04-06T10:48:44;11.60;87.20
3478;DHT22;37937;61.490;23.506;2023-04-06T10:51:11;12.30;94.70
3478;DHT22;37937;61.490;23.506;2023-04-06T10:53:37;11.80;83.70
3478;DHT22;37937;61.490;23.506;2023-04-06T10:56:02;11.60;83.10
3478;DHT22;37937;61.490;23.506;2023-04-06T10:58:29;12.10;83.10
3478;DHT22;37937;61.490;23.506;2023-04-06T11:00:56;11.80;84.90
3478;DHT22;37937;61.490;23.506;2023-04-06T11:03:21;11.30;86.40
3478;DHT22;37937;61.490;23.506;2023-04-06T11:05:47;11.00;88.10
3478;DHT22;37937;61.490;23.506;2023-04-06T11:08:23;11.00;88.20
3478;DHT22;37937;61.490;23.506;2023-04-06T11:10:49;11.20;85.70
3478;DHT22;37937;61.490;23.506;2023-04-06T11:13:14;10.90;86.10
3478;DHT22;37937;61.490;23.506;2023-04-06T11:15:40;11.10;89.70
3478;DHT22;37937;61.490;23.506;2023-04-06T11:18:06;11.30;87.60
3478;DHT22;37937;61.490;23.506;2023-04-06T11:20:31;11.20;87.70
3478;DHT22;37937;61.490;23.506;2023-04-06T11:22:57;11.20;84.10
3478;DHT22;37937;61.490;23.506;2023-04-06T11:25:24;11.10;82.50
3478;DHT22;37937;61.490;23.506;2023-04-06T11:27:51;11.20;86.10
3478;DHT22;37937;61.490;23.506;2023-04-06T11:30:17;11.10;83.70
3478;DHT22;37937;61.490;23.506;2023-04-06T11:32:43;11.30;82.90
3478;DHT22;37937;61.490;23.506;2023-04-06T11:35:24;10.90;83.40
3478;DHT22;37937;61.490;23.506;2023-04-06T11:37:50;11.10;85.80
3478;DHT22;37937;61.490;23.506;2023-04-06T11:40:16;11.60;81.30
3478;DHT22;37937;61.490;23.506;2023-04-06T11:42:51;11.40;82.80
3478;DHT22;37937;61.490;23.506;2023-04-06T11:45:17;11.50;84.70
3478;DHT22;37937;61.490;23.506;2023-04-06T11:47:42;11.10;79.20
3478;DHT22;37937;61.490;23.506;2023-04-06T11:50:08;11.60;81.10
3478;DHT22;37937;61.490;23.506;2023-04-06T11:52:34;11.50;80.70
3478;DHT22;37937;61.490;23.506;2023-04-06T11:55:10;11.60;79.10
3478;DHT22;37937;61.490;23.506;2023-04-06T11:57:35;11.50;83.20
3478;DHT22;37937;61.490;23.506;2023-04-06T12:00:01;11.30;79.00
3478;DHT22;37937;61.490;23.506;2023-04-06T12:02:27;11.20;78.90
3478;DHT22;37937;61.490;23.506;2023-04-06T12:04:52;11.50;78.10
3478;DHT22;37937;61.490;23.506;2023-04-06T12:07:18;11.50;78.50
3478;DHT22;37937;61.490;23.506;2023-04-06T12:09:44;11.50;77.30
3478;DHT22;37937;61.490;23.506;2023-04-06T12:12:09;11.80;76.70
3478;DHT22;37937;61.490;23.506;2023-04-06T12:14:35;11.80;75.90
3478;DHT22;37937;61.490;23.506;2023-04-06T12:17:00;11.80;79.10
3478;DHT22;37937;61.490;23.506;2023-04-06T12:19:26;12.00;78.90
3478;DHT22;37937;61.490;23.506;2023-04-06T12:21:52;11.70;71.80
3478;DHT22;37937;61.490;23.506;2023-04-06T12:24:18;11.40;75.50
3478;DHT22;37937;61.490;23.506;2023-04-06T12:26:44;11.60;75.80
3478;DHT22;37937;61.490;23.506;2023-04-06T12:29:10;11.50;73.50
3478;DHT22;37937;61.490;23.506;2023-04-06T12:31:36;11.70;73.10
3478;DHT22;37937;61.490;23.506;2023-04-06T12:34:04;11.80;78.60
3478;DHT22;37937;61.490;23.506;2023-04-06T12:36:29;11.70;75.40
3478;DHT22;37937;61.490;23.506;2023-04-06T12:38:56;11.60;73.20
3478;DHT22;37937;61.490;23.506;2023-04-06T12:41:21;11.40;75.70
3478;DHT22;37937;61.490;23.506;2023-04-06T12:43:48;11.30;73.90
3478;DHT22;37937;61.490;23.506;2023-04-06T12:46:14;11.40;74.10
3478;DHT22;37937;61.490;23.506;2023-04-06T12:48:40;11.20;77.40
3478;DHT22;37937;61.490;23.506;2023-04-06T12:51:06;11.20;75.70
3478;DHT22;37937;61.490;23.506;2023-04-06T12:53:32;11.10;74.20
3478;DHT22;37937;61.490;23.506;2023-04-06T12:55:58;11.10;76.20
3478;DHT22;37937;61.490;23.506;2023-04-06T12:58:24;11.20;81.10
3478;DHT22;37937;61.490;23.506;2023-04-06T13:00:52;11.10;74.60
3478;DHT22;37937;61.490;23.506;2023-04-06T13:03:18;11.00;76.20
3478;DHT22;37937;61.490;23.506;2023-04-06T13:05:44;11.10;75.50
3478;DHT22;37937;61.490;23.506;2023-04-06T13:08:10;11.10;75.30
3478;DHT22;37937;61.490;23.506;2023-04-06T13:10:36;10.90;73.20
3478;DHT22;37937;61.490;23.506;2023-04-06T13:13:02;10.80;75.30
3478;DHT22;37937;61.490;23.506;2023-04-06T13:15:28;10.60;76.40
3478;DHT22;37937;61.490;23.506;2023-04-06T13:17:53;10.60;75.80
3478;DHT22;37937;61.490;23.506;2023-04-06T13:20:19;10.60;78.40
3478;DHT22;37937;61.490;23.506;2023-04-06T13:22:45;10.60;76.80
3478;DHT22;37937;61.490;23.506;2023-04-06T13:25:10;10.60;80.80
3478;DHT22;37937;61.490;23.506;2023-04-06T13:27:36;10.50;78.00
3478;DHT22;37937;61.490;23.506;2023-04-06T13:30:04;10.50;77.80
3478;DHT22;37937;61.490;23.506;2023-04-06T13:32:30;10.50;77.80
3478;DHT22;37937;61.490;23.506;2023-04-06T13:34:56;10.50;78.40
3478;DHT22;37937;61.490;23.506;2023-04-06T13:37:21;10.50;78.70
3478;DHT22;37937;61.490;23.506;2023-04-06T13:39:47;10.40;79.70
3478;DHT22;37937;61.490;23.506;2023-04-06T13:42:13;10.40;77.40
3478;DHT22;37937;61.490;23.506;2023-04-06T13:44:38;10.40;77.20
3478;DHT22;37937;61.490;23.506;2023-04-06T13:47:04;10.40;78.00
3478;DHT22;37937;61.490;23.506;2023-04-06T13:49:30;10.30;77.20
3478;DHT22;37937;61.490;23.506;2023-04-06T13:51:55;10.30;80.00
3478;DHT22;37937;61.490;23.506;2023-04-06T13:54:21;10.20;78.70
3478;DHT22;37937;61.490;23.506;2023-04-06T13:56:46;10.10;80.00
3478;DHT22;37937;61.490;23.506;2023-04-06T13:59:12;10.10;78.70
3478;DHT22;37937;61.490;23.506;2023-04-06T14:01:38;10.00;84.10
3478;DHT22;37937;61.490;23.506;2023-04-06T14:04:03;10.00;81.90
3478;DHT22;37937;61.490;23.506;2023-04-06T14:06:29;10.10;81.60
3478;DHT22;37937;61.490;23.506;2023-04-06T14:08:55;10.10;80.40
3478;DHT22;37937;61.490;23.506;2023-04-06T14:11:20;10.00;80.70
3478;DHT22;37937;61.490;23.506;2023-04-06T14:13:46;10.00;80.40
3478;DHT22;37937;61.490;23.506;2023-04-06T14:16:11;9.90;86.90
3478;DHT22;37937;61.490;23.506;2023-04-06T14:18:37;10.00;82.70
3478;DHT22;37937;61.490;23.506;2023-04-06T14:21:03;10.00;81.10
3478;DHT22;37937;61.490;23.506;2023-04-06T14:23:29;10.00;84.00
3478;DHT22;37937;61.490;23.506;2023-04-06T14:26:04;10.00;82.80
3478;DHT22;37937;61.490;23.506;2023-04-06T14:28:31;10.00;84.10
3478;DHT22;37937;61.490;23.506;2023-04-06T14:30:58;9.90;82.10
3478;DHT22;37937;61.490;23.506;2023-04-06T14:33:23;9.90;82.90
3478;DHT22;37937;61.490;23.506;2023-04-06T14:35:49;9.90;83.30
3478;DHT22;37937;61.490;23.506;2023-04-06T14:38:15;9.90;82.50
3478;DHT22;37937;61.490;23.506;2023-04-06T14:40:41;9.90;84.40
3478;DHT22;37937;61.490;23.506;2023-04-06T14:43:06;9.80;85.50
3478;DHT22;37937;61.490;23.506;2023-04-06T14:45:35;9.80;83.20
3478;DHT22;37937;61.490;23.506;2023-04-06T14:48:02;9.80;84.90
3478;DHT22;37937;61.490;23.506;2023-04-06T14:50:28;9.80;83.40
3478;DHT22;37937;61.490;23.506;2023-04-06T14:52:53;9.70;84.70
3478;DHT22;37937;61.490;23.506;2023-04-06T14:55:20;9.70;85.50
3478;DHT22;37937;61.490;23.506;2023-04-06T14:57:45;9.70;87.10
3478;DHT22;37937;61.490;23.506;2023-04-06T15:00:11;9.70;86.10
3478;DHT22;37937;61.490;23.506;2023-04-06T15:02:37;9.70;85.10
3478;DHT22;37937;61.490;23.506;2023-04-06T15:05:03;9.70;85.80
3478;DHT22;37937;61.490;23.506;2023-04-06T15:07:30;9.70;85.30
3478;DHT22;37937;61.490;23.506;2023-04-06T15:09:56;9.60;87.10
3478;DHT22;37937;61.490;23.506;2023-04-06T15:12:21;9.60;85.60
3478;DHT22;37937;61.490;23.506;2023-04-06T15:14:47;9.60;84.50
3478;DHT22;37937;61.490;23.506;2023-04-06T15:17:13;9.50;86.60
3478;DHT22;37937;61.490;23.506;2023-04-06T15:19:38;9.50;87.20
3478;DHT22;37937;61.490;23.506;2023-04-06T15:22:04;9.40;88.00
3478;DHT22;37937;61.490;23.506;2023-04-06T15:24:30;9.40;87.80
3478;DHT22;37937;61.490;23.506;2023-04-06T15:26:55;9.30;87.50
3478;DHT22;37937;61.490;23.506;2023-04-06T15:29:22;9.30;88.30
3478;DHT22;37937;61.490;23.506;2023-04-06T15:31:47;9.40;86.10
3478;DHT22;37937;61.490;23.506;2023-04-06T15:34:13;9.30;86.40
3478;DHT22;37937;61.490;23.506;2023-04-06T15:36:38;9.30;87.30